Brownsville South Padre Island International Airport Brownsville US
ICAO: KBRO
IATA: BRO
Category: Medium
Scheduled Services: Yes

Elevation: 22 ft
TransAlt. 18000 ft.

Airport Communications:
VALLEY APP/DEP:119.5
ATIS:128.55
CTAF:118.9
GND:121.9
SAN ANGELO RDO:122.3
TWR:118.9
UNICOM:122.95

KBRO Zoom In..

Runways:

(A) RW 13L length 3000 ft width 75 ft
---- / hdg 128

(B) RW 13R length 7399 ft width 150 ft
ILS 110.30 / hdg 128

(C) RW 17 length 6000 ft width 150 ft
---- / hdg 175

(D) RW 31L length 7399 ft width 150 ft
---- / hdg 308

(E) RW 31R length 3000 ft width 75 ft
---- / hdg 308

(F) RW 35 length 6000 ft width 150 ft
---- / hdg 355

Location; KBRO
Day. 16 / Time. 17.53 Zulu
* Altimeter: 30.05
* Temperature: 35° c. 95°f.
* Wind from: 180° Speed 18 kn with Gusts up to 21 kn.
Dewpoint: 22° c.
Visibility: 10 Statute Miles.
Clouds: Few 4700 ft.

KBRO 161753Z 18018G21KT 10SM FEW047 35/22 A3005 RMK AO2 SLP173 T03500222 10350 20272 50003


Wind From 180°
Speed 18 kn.

 
 
jpsmedia.com for Web Design worldairports.se 2018   terms of use